Atlantic City, NJ

10:22 PM EDT on October 22, 2017 (GMT -0400)
Seaside Road Beach | | Change Station

Elev 20 ft 39.38 °N, 74.40 °W | Updated 8 seconds ago

Clear
Clear
69.4 °F
Feels Like 69.4 °F
N
3.1
Wind Variable Wind from ESE
Gusts 4.9 mph

Today
High -- | Low -- °F
--% Chance of Precip.
Yesterday
High -- | Low -- °F
Precip. -- in
Pressure 30.38 in
Visibility 10.0 miles
Clouds Few 1700 ft
Dew Point 69 °F
Humidity 99%
Rainfall 0.00 in
Snow Depth Not available.
7:15 AM 6:08 PM
Waxing Crescent, 10% visible
METAR KACY 230154Z 00000KT 10SM FEW017 16/14 A3037 RMK AO2 SLP285 T01560139
Pressure 30.38 in
Visibility 10.0 miles
Clouds Few 1700 ft
Dew Point 69 °F
Humidity 99%
Rainfall 0.00 in
Snow Depth Not available.
7:15 AM 6:08 PM
Waxing Crescent, 10% visible
METAR KACY 230154Z 00000KT 10SM FEW017 16/14 A3037 RMK AO2 SLP285 T01560139

Get Severe Weather Alerts

Thanks for signing up!

Be on the lookout for a verification email in your inbox.

You'll start receiving the daily forecast at 6 AM.

×

10-Day Weather Forecast

Almanac

Astronomy

Oct. 22, 2017 Rise Set
Actual Time
Civil Twilight
Nautical Twilight
Astronomical Twilight
Moon
Length of Visible Light
Length of Day
Tomorrow will be .
, % of the Moon is Illuminated

Today's Extremes

State Highs State Lows

Community

WunderPhotos

Category 6

Welcome to Category 6. This is the collective home for Weather Underground's featured writeups by Dr. Jeff Masters (right), Bob Henson (left), Chris Burt, and other regular contributors.

Nearby

Air Quality

  Air Quality AQ Index Pollutant
Not available.

Snow Depth

Station Depth Elevation

Earthquake Activity

City Distance Mag. Time & Date
Minimum magnitude displayed is 2.5.

Coastal Water Temperatures

Place Temperature

Stations

Nearby Weather Stations

Station Location Temp. Windchill Dew Point Humidity Wind Precip. Elev Updated Type
                   

Watches & Warnings

There are currently no watches in effect.